sensor_id;sensor_type;location;lat;lon;timestamp;P1;durP1;ratioP1;P2;durP2;ratioP2
19221;SDS011;9745;50.828;4.378;2023-04-03T00:02:09;11.37;;;5.97;;
19221;SDS011;9745;50.828;4.378;2023-04-03T00:04:35;9.60;;;5.90;;
19221;SDS011;9745;50.828;4.378;2023-04-03T00:07:01;8.57;;;5.77;;
19221;SDS011;9745;50.828;4.378;2023-04-03T00:09:27;11.40;;;5.87;;
19221;SDS011;9745;50.828;4.378;2023-04-03T00:11:53;8.63;;;5.23;;
19221;SDS011;9745;50.828;4.378;2023-04-03T00:14:19;9.37;;;5.90;;
19221;SDS011;9745;50.828;4.378;2023-04-03T00:16:45;10.47;;;5.57;;
19221;SDS011;9745;50.828;4.378;2023-04-03T00:19:11;8.23;;;4.90;;
19221;SDS011;9745;50.828;4.378;2023-04-03T00:21:37;10.13;;;5.60;;
19221;SDS011;9745;50.828;4.378;2023-04-03T00:24:03;14.07;;;5.97;;
19221;SDS011;9745;50.828;4.378;2023-04-03T00:26:29;8.20;;;4.90;;
19221;SDS011;9745;50.828;4.378;2023-04-03T00:28:55;10.20;;;5.80;;
19221;SDS011;9745;50.828;4.378;2023-04-03T00:31:21;8.77;;;5.03;;
19221;SDS011;9745;50.828;4.378;2023-04-03T00:33:48;10.10;;;5.33;;
19221;SDS011;9745;50.828;4.378;2023-04-03T00:36:14;8.90;;;5.03;;
19221;SDS011;9745;50.828;4.378;2023-04-03T00:38:40;9.00;;;4.70;;
19221;SDS011;9745;50.828;4.378;2023-04-03T00:41:07;11.90;;;5.70;;
19221;SDS011;9745;50.828;4.378;2023-04-03T00:43:33;6.77;;;5.37;;
19221;SDS011;9745;50.828;4.378;2023-04-03T00:45:59;11.93;;;5.10;;
19221;SDS011;9745;50.828;4.378;2023-04-03T00:48:36;7.67;;;5.03;;
19221;SDS011;9745;50.828;4.378;2023-04-03T00:51:02;11.90;;;5.17;;
19221;SDS011;9745;50.828;4.378;2023-04-03T00:53:37;9.60;;;5.37;;
19221;SDS011;9745;50.828;4.378;2023-04-03T00:56:08;7.30;;;4.83;;
19221;SDS011;9745;50.828;4.378;2023-04-03T00:58:42;8.13;;;5.33;;
19221;SDS011;9745;50.828;4.378;2023-04-03T01:01:11;9.93;;;5.33;;
19221;SDS011;9745;50.828;4.378;2023-04-03T01:03:38;7.60;;;5.30;;
19221;SDS011;9745;50.828;4.378;2023-04-03T01:06:04;7.07;;;4.70;;
19221;SDS011;9745;50.828;4.378;2023-04-03T01:08:31;8.53;;;4.93;;
19221;SDS011;9745;50.828;4.378;2023-04-03T01:10:57;10.73;;;6.03;;
19221;SDS011;9745;50.828;4.378;2023-04-03T01:13:29;8.93;;;4.83;;
19221;SDS011;9745;50.828;4.378;2023-04-03T01:15:56;11.23;;;6.40;;
19221;SDS011;9745;50.828;4.378;2023-04-03T01:18:22;12.53;;;5.20;;
19221;SDS011;9745;50.828;4.378;2023-04-03T01:23:22;9.90;;;5.17;;
19221;SDS011;9745;50.828;4.378;2023-04-03T01:25:51;11.27;;;6.20;;
19221;SDS011;9745;50.828;4.378;2023-04-03T01:28:20;9.70;;;5.07;;
19221;SDS011;9745;50.828;4.378;2023-04-03T01:33:31;9.50;;;5.60;;
19221;SDS011;9745;50.828;4.378;2023-04-03T01:35:57;8.50;;;5.80;;
19221;SDS011;9745;50.828;4.378;2023-04-03T01:38:23;11.57;;;5.70;;
19221;SDS011;9745;50.828;4.378;2023-04-03T01:40:50;7.43;;;5.40;;
19221;SDS011;9745;50.828;4.378;2023-04-03T01:43:16;9.80;;;5.23;;
19221;SDS011;9745;50.828;4.378;2023-04-03T01:45:42;8.37;;;5.20;;
19221;SDS011;9745;50.828;4.378;2023-04-03T01:48:08;8.70;;;5.13;;
19221;SDS011;9745;50.828;4.378;2023-04-03T01:50:34;8.43;;;5.60;;
19221;SDS011;9745;50.828;4.378;2023-04-03T01:53:00;8.60;;;5.80;;
19221;SDS011;9745;50.828;4.378;2023-04-03T01:55:26;9.97;;;5.37;;
19221;SDS011;9745;50.828;4.378;2023-04-03T01:57:52;11.30;;;5.07;;
19221;SDS011;9745;50.828;4.378;2023-04-03T02:00:19;8.57;;;4.97;;
19221;SDS011;9745;50.828;4.378;2023-04-03T02:02:45;8.83;;;4.77;;
19221;SDS011;9745;50.828;4.378;2023-04-03T02:05:11;8.13;;;4.87;;
19221;SDS011;9745;50.828;4.378;2023-04-03T02:07:37;5.93;;;4.73;;
19221;SDS011;9745;50.828;4.378;2023-04-03T02:10:03;9.50;;;5.63;;
19221;SDS011;9745;50.828;4.378;2023-04-03T02:12:29;10.80;;;5.43;;
19221;SDS011;9745;50.828;4.378;2023-04-03T02:14:55;10.77;;;5.97;;
19221;SDS011;9745;50.828;4.378;2023-04-03T02:17:21;10.83;;;5.40;;
19221;SDS011;9745;50.828;4.378;2023-04-03T02:19:47;8.00;;;4.93;;
19221;SDS011;9745;50.828;4.378;2023-04-03T02:22:13;6.57;;;4.67;;
19221;SDS011;9745;50.828;4.378;2023-04-03T02:24:39;13.50;;;5.50;;
19221;SDS011;9745;50.828;4.378;2023-04-03T02:27:06;6.77;;;5.00;;
19221;SDS011;9745;50.828;4.378;2023-04-03T02:29:32;10.63;;;5.40;;
19221;SDS011;9745;50.828;4.378;2023-04-03T02:31:58;10.67;;;5.43;;
19221;SDS011;9745;50.828;4.378;2023-04-03T02:34:24;7.70;;;5.20;;
19221;SDS011;9745;50.828;4.378;2023-04-03T02:36:50;8.00;;;5.10;;
19221;SDS011;9745;50.828;4.378;2023-04-03T02:39:16;9.70;;;5.80;;
19221;SDS011;9745;50.828;4.378;2023-04-03T02:41:42;8.77;;;5.43;;
19221;SDS011;9745;50.828;4.378;2023-04-03T02:44:08;11.13;;;5.67;;
19221;SDS011;9745;50.828;4.378;2023-04-03T02:46:35;11.87;;;6.43;;
19221;SDS011;9745;50.828;4.378;2023-04-03T02:49:01;9.47;;;5.23;;
19221;SDS011;9745;50.828;4.378;2023-04-03T02:51:27;7.50;;;5.30;;
19221;SDS011;9745;50.828;4.378;2023-04-03T02:53:53;7.70;;;5.20;;
19221;SDS011;9745;50.828;4.378;2023-04-03T02:56:19;9.00;;;5.73;;
19221;SDS011;9745;50.828;4.378;2023-04-03T02:58:46;8.27;;;5.57;;
19221;SDS011;9745;50.828;4.378;2023-04-03T03:01:12;7.47;;;5.60;;
19221;SDS011;9745;50.828;4.378;2023-04-03T03:03:38;9.87;;;5.40;;
19221;SDS011;9745;50.828;4.378;2023-04-03T03:06:05;5.80;;;5.13;;
19221;SDS011;9745;50.828;4.378;2023-04-03T03:08:31;9.13;;;5.33;;
19221;SDS011;9745;50.828;4.378;2023-04-03T03:10:57;9.20;;;5.80;;
19221;SDS011;9745;50.828;4.378;2023-04-03T03:13:23;7.27;;;5.40;;
19221;SDS011;9745;50.828;4.378;2023-04-03T03:15:50;10.00;;;5.23;;
19221;SDS011;9745;50.828;4.378;2023-04-03T03:18:16;10.23;;;5.20;;
19221;SDS011;9745;50.828;4.378;2023-04-03T03:20:42;8.83;;;5.20;;
19221;SDS011;9745;50.828;4.378;2023-04-03T03:23:08;9.03;;;5.50;;
19221;SDS011;9745;50.828;4.378;2023-04-03T03:25:37;7.53;;;4.83;;
19221;SDS011;9745;50.828;4.378;2023-04-03T03:28:03;8.03;;;5.13;;
19221;SDS011;9745;50.828;4.378;2023-04-03T03:30:30;8.47;;;5.17;;
19221;SDS011;9745;50.828;4.378;2023-04-03T03:32:56;7.60;;;5.53;;
19221;SDS011;9745;50.828;4.378;2023-04-03T03:35:22;8.53;;;5.40;;
19221;SDS011;9745;50.828;4.378;2023-04-03T03:37:48;8.40;;;6.03;;
19221;SDS011;9745;50.828;4.378;2023-04-03T03:40:14;7.97;;;5.80;;
19221;SDS011;9745;50.828;4.378;2023-04-03T03:42:40;10.63;;;5.37;;
19221;SDS011;9745;50.828;4.378;2023-04-03T03:45:06;11.00;;;6.47;;
19221;SDS011;9745;50.828;4.378;2023-04-03T03:47:32;9.57;;;5.93;;
19221;SDS011;9745;50.828;4.378;2023-04-03T03:49:58;10.83;;;7.23;;
19221;SDS011;9745;50.828;4.378;2023-04-03T03:52:25;9.23;;;5.77;;
19221;SDS011;9745;50.828;4.378;2023-04-03T03:54:51;10.27;;;6.77;;
19221;SDS011;9745;50.828;4.378;2023-04-03T03:57:17;14.60;;;6.70;;
19221;SDS011;9745;50.828;4.378;2023-04-03T03:59:43;11.03;;;6.37;;
19221;SDS011;9745;50.828;4.378;2023-04-03T04:02:09;9.47;;;6.33;;
19221;SDS011;9745;50.828;4.378;2023-04-03T04:04:36;11.67;;;6.50;;
19221;SDS011;9745;50.828;4.378;2023-04-03T04:07:02;8.07;;;5.67;;
19221;SDS011;9745;50.828;4.378;2023-04-03T04:09:28;10.83;;;6.97;;
19221;SDS011;9745;50.828;4.378;2023-04-03T04:11:54;12.77;;;6.20;;
19221;SDS011;9745;50.828;4.378;2023-04-03T04:14:20;7.70;;;6.47;;
19221;SDS011;9745;50.828;4.378;2023-04-03T04:16:47;12.07;;;6.53;;
19221;SDS011;9745;50.828;4.378;2023-04-03T04:19:13;13.27;;;6.73;;
19221;SDS011;9745;50.828;4.378;2023-04-03T04:21:39;8.83;;;6.47;;
19221;SDS011;9745;50.828;4.378;2023-04-03T04:24:06;9.47;;;6.27;;
19221;SDS011;9745;50.828;4.378;2023-04-03T04:26:32;9.77;;;6.03;;
19221;SDS011;9745;50.828;4.378;2023-04-03T04:28:58;8.90;;;6.80;;
19221;SDS011;9745;50.828;4.378;2023-04-03T04:31:24;10.10;;;6.40;;
19221;SDS011;9745;50.828;4.378;2023-04-03T04:33:51;8.83;;;6.80;;
19221;SDS011;9745;50.828;4.378;2023-04-03T04:36:16;12.20;;;6.80;;
19221;SDS011;9745;50.828;4.378;2023-04-03T04:38:43;10.03;;;6.50;;
19221;SDS011;9745;50.828;4.378;2023-04-03T04:41:09;10.80;;;6.93;;
19221;SDS011;9745;50.828;4.378;2023-04-03T04:43:35;13.43;;;6.17;;
19221;SDS011;9745;50.828;4.378;2023-04-03T04:46:08;14.83;;;6.43;;
19221;SDS011;9745;50.828;4.378;2023-04-03T04:48:36;9.30;;;6.77;;
19221;SDS011;9745;50.828;4.378;2023-04-03T04:51:02;11.57;;;7.07;;
19221;SDS011;9745;50.828;4.378;2023-04-03T04:53:28;14.23;;;8.17;;
19221;SDS011;9745;50.828;4.378;2023-04-03T04:55:54;12.17;;;7.60;;
19221;SDS011;9745;50.828;4.378;2023-04-03T04:58:20;10.30;;;7.20;;
19221;SDS011;9745;50.828;4.378;2023-04-03T05:00:46;12.27;;;7.27;;
19221;SDS011;9745;50.828;4.378;2023-04-03T05:03:12;9.17;;;6.90;;
19221;SDS011;9745;50.828;4.378;2023-04-03T05:05:38;11.50;;;6.70;;
19221;SDS011;9745;50.828;4.378;2023-04-03T05:08:05;12.40;;;7.07;;
19221;SDS011;9745;50.828;4.378;2023-04-03T05:10:31;11.50;;;7.67;;
19221;SDS011;9745;50.828;4.378;2023-04-03T05:12:57;11.00;;;8.17;;
19221;SDS011;9745;50.828;4.378;2023-04-03T05:15:23;11.30;;;7.67;;
19221;SDS011;9745;50.828;4.378;2023-04-03T05:17:49;12.90;;;7.03;;
19221;SDS011;9745;50.828;4.378;2023-04-03T05:20:16;13.30;;;7.60;;
19221;SDS011;9745;50.828;4.378;2023-04-03T05:22:42;11.63;;;7.80;;
19221;SDS011;9745;50.828;4.378;2023-04-03T05:25:08;12.57;;;7.73;;
19221;SDS011;9745;50.828;4.378;2023-04-03T05:27:34;13.87;;;7.57;;
19221;SDS011;9745;50.828;4.378;2023-04-03T05:30:00;11.40;;;7.50;;
19221;SDS011;9745;50.828;4.378;2023-04-03T05:32:26;12.10;;;7.90;;
19221;SDS011;9745;50.828;4.378;2023-04-03T05:34:52;11.07;;;7.80;;
19221;SDS011;9745;50.828;4.378;2023-04-03T05:37:19;11.07;;;7.73;;
19221;SDS011;9745;50.828;4.378;2023-04-03T05:39:45;11.57;;;7.80;;
19221;SDS011;9745;50.828;4.378;2023-04-03T05:42:11;13.10;;;8.43;;
19221;SDS011;9745;50.828;4.378;2023-04-03T05:44:37;13.93;;;8.17;;
19221;SDS011;9745;50.828;4.378;2023-04-03T05:47:04;16.23;;;8.77;;
19221;SDS011;9745;50.828;4.378;2023-04-03T05:49:30;14.43;;;8.23;;
19221;SDS011;9745;50.828;4.378;2023-04-03T05:51:56;13.43;;;8.47;;
19221;SDS011;9745;50.828;4.378;2023-04-03T05:54:23;13.67;;;8.97;;
19221;SDS011;9745;50.828;4.378;2023-04-03T05:56:50;13.17;;;8.13;;
19221;SDS011;9745;50.828;4.378;2023-04-03T05:59:16;12.47;;;8.50;;
19221;SDS011;9745;50.828;4.378;2023-04-03T06:01:42;15.47;;;8.87;;
19221;SDS011;9745;50.828;4.378;2023-04-03T06:04:08;16.97;;;9.27;;
19221;SDS011;9745;50.828;4.378;2023-04-03T06:06:45;16.47;;;9.00;;
19221;SDS011;9745;50.828;4.378;2023-04-03T06:09:11;15.60;;;8.57;;
19221;SDS011;9745;50.828;4.378;2023-04-03T06:11:37;13.10;;;9.27;;
19221;SDS011;9745;50.828;4.378;2023-04-03T06:14:04;15.13;;;8.40;;
19221;SDS011;9745;50.828;4.378;2023-04-03T06:16:30;12.70;;;8.33;;
19221;SDS011;9745;50.828;4.378;2023-04-03T06:18:56;13.43;;;8.97;;
19221;SDS011;9745;50.828;4.378;2023-04-03T06:21:22;12.10;;;8.27;;
19221;SDS011;9745;50.828;4.378;2023-04-03T06:23:48;13.23;;;8.47;;
19221;SDS011;9745;50.828;4.378;2023-04-03T06:26:14;13.70;;;9.53;;
19221;SDS011;9745;50.828;4.378;2023-04-03T06:28:40;14.90;;;8.93;;
19221;SDS011;9745;50.828;4.378;2023-04-03T06:31:06;15.23;;;8.80;;
19221;SDS011;9745;50.828;4.378;2023-04-03T06:33:32;12.97;;;9.17;;
19221;SDS011;9745;50.828;4.378;2023-04-03T06:35:58;13.67;;;8.23;;
19221;SDS011;9745;50.828;4.378;2023-04-03T06:38:24;16.63;;;8.97;;
19221;SDS011;9745;50.828;4.378;2023-04-03T06:40:50;12.33;;;8.93;;
19221;SDS011;9745;50.828;4.378;2023-04-03T06:43:17;16.77;;;8.53;;
19221;SDS011;9745;50.828;4.378;2023-04-03T06:45:43;11.53;;;8.03;;
19221;SDS011;9745;50.828;4.378;2023-04-03T06:48:09;13.70;;;8.43;;
19221;SDS011;9745;50.828;4.378;2023-04-03T06:50:35;12.60;;;8.27;;
19221;SDS011;9745;50.828;4.378;2023-04-03T06:53:01;14.00;;;8.37;;
19221;SDS011;9745;50.828;4.378;2023-04-03T06:55:27;13.80;;;8.87;;
19221;SDS011;9745;50.828;4.378;2023-04-03T06:57:53;12.50;;;8.00;;
19221;SDS011;9745;50.828;4.378;2023-04-03T07:00:19;10.43;;;9.00;;
19221;SDS011;9745;50.828;4.378;2023-04-03T07:02:45;18.90;;;8.23;;
19221;SDS011;9745;50.828;4.378;2023-04-03T07:05:12;12.10;;;7.93;;
19221;SDS011;9745;50.828;4.378;2023-04-03T07:07:38;12.67;;;6.77;;
19221;SDS011;9745;50.828;4.378;2023-04-03T07:10:05;15.37;;;8.53;;
19221;SDS011;9745;50.828;4.378;2023-04-03T07:12:31;14.30;;;8.93;;
19221;SDS011;9745;50.828;4.378;2023-04-03T07:14:57;13.83;;;7.73;;
19221;SDS011;9745;50.828;4.378;2023-04-03T07:17:23;19.40;;;8.60;;
19221;SDS011;9745;50.828;4.378;2023-04-03T07:19:50;15.30;;;8.47;;
19221;SDS011;9745;50.828;4.378;2023-04-03T07:22:16;13.57;;;7.33;;
19221;SDS011;9745;50.828;4.378;2023-04-03T07:24:42;10.87;;;7.17;;
19221;SDS011;9745;50.828;4.378;2023-04-03T07:27:08;14.07;;;7.67;;
19221;SDS011;9745;50.828;4.378;2023-04-03T07:29:35;11.77;;;7.17;;
19221;SDS011;9745;50.828;4.378;2023-04-03T07:32:02;16.23;;;7.97;;
19221;SDS011;9745;50.828;4.378;2023-04-03T07:34:28;10.67;;;7.83;;
19221;SDS011;9745;50.828;4.378;2023-04-03T07:36:54;12.87;;;7.70;;
19221;SDS011;9745;50.828;4.378;2023-04-03T07:39:20;11.37;;;6.87;;
19221;SDS011;9745;50.828;4.378;2023-04-03T07:41:46;11.20;;;7.83;;
19221;SDS011;9745;50.828;4.378;2023-04-03T07:44:12;12.47;;;9.13;;
19221;SDS011;9745;50.828;4.378;2023-04-03T07:46:38;10.60;;;7.03;;
19221;SDS011;9745;50.828;4.378;2023-04-03T07:49:04;8.97;;;6.87;;
19221;SDS011;9745;50.828;4.378;2023-04-03T07:51:30;13.80;;;7.17;;
19221;SDS011;9745;50.828;4.378;2023-04-03T07:53:56;10.90;;;7.47;;
19221;SDS011;9745;50.828;4.378;2023-04-03T07:56:22;9.97;;;6.60;;
19221;SDS011;9745;50.828;4.378;2023-04-03T07:58:50;9.27;;;6.73;;
19221;SDS011;9745;50.828;4.378;2023-04-03T08:01:16;15.63;;;6.97;;
19221;SDS011;9745;50.828;4.378;2023-04-03T08:03:42;11.87;;;6.57;;
19221;SDS011;9745;50.828;4.378;2023-04-03T08:06:08;10.40;;;6.50;;
19221;SDS011;9745;50.828;4.378;2023-04-03T08:08:35;10.63;;;5.97;;
19221;SDS011;9745;50.828;4.378;2023-04-03T08:11:01;9.53;;;6.57;;
19221;SDS011;9745;50.828;4.378;2023-04-03T08:13:28;7.83;;;5.30;;
19221;SDS011;9745;50.828;4.378;2023-04-03T08:15:54;10.30;;;5.70;;
19221;SDS011;9745;50.828;4.378;2023-04-03T08:18:22;12.20;;;6.67;;
19221;SDS011;9745;50.828;4.378;2023-04-03T08:20:49;9.80;;;5.80;;
19221;SDS011;9745;50.828;4.378;2023-04-03T08:23:15;7.23;;;5.13;;
19221;SDS011;9745;50.828;4.378;2023-04-03T08:25:41;8.63;;;5.53;;
19221;SDS011;9745;50.828;4.378;2023-04-03T08:28:08;17.67;;;5.00;;
19221;SDS011;9745;50.828;4.378;2023-04-03T08:30:34;7.90;;;4.80;;
19221;SDS011;9745;50.828;4.378;2023-04-03T08:33:01;8.13;;;4.27;;
19221;SDS011;9745;50.828;4.378;2023-04-03T08:35:27;12.80;;;6.93;;
19221;SDS011;9745;50.828;4.378;2023-04-03T08:37:53;15.27;;;6.37;;
19221;SDS011;9745;50.828;4.378;2023-04-03T08:40:19;9.90;;;5.80;;
19221;SDS011;9745;50.828;4.378;2023-04-03T08:42:51;8.70;;;5.43;;
19221;SDS011;9745;50.828;4.378;2023-04-03T08:48:06;10.10;;;5.40;;
19221;SDS011;9745;50.828;4.378;2023-04-03T08:50:41;12.17;;;5.20;;
19221;SDS011;9745;50.828;4.378;2023-04-03T08:53:12;9.23;;;5.00;;
19221;SDS011;9745;50.828;4.378;2023-04-03T08:55:42;11.10;;;5.30;;
19221;SDS011;9745;50.828;4.378;2023-04-03T08:58:15;6.77;;;5.33;;
19221;SDS011;9745;50.828;4.378;2023-04-03T09:00:55;10.97;;;5.77;;
19221;SDS011;9745;50.828;4.378;2023-04-03T09:03:22;6.27;;;4.77;;
19221;SDS011;9745;50.828;4.378;2023-04-03T09:05:54;7.10;;;5.00;;
19221;SDS011;9745;50.828;4.378;2023-04-03T09:10:47;9.90;;;5.00;;
19221;SDS011;9745;50.828;4.378;2023-04-03T09:13:24;6.63;;;4.33;;
19221;SDS011;9745;50.828;4.378;2023-04-03T09:15:52;6.60;;;3.87;;
19221;SDS011;9745;50.828;4.378;2023-04-03T09:18:19;7.37;;;4.30;;
19221;SDS011;9745;50.828;4.378;2023-04-03T09:23:30;8.77;;;4.07;;
19221;SDS011;9745;50.828;4.378;2023-04-03T09:26:01;8.50;;;5.13;;
19221;SDS011;9745;50.828;4.378;2023-04-03T09:28:29;8.07;;;3.90;;
19221;SDS011;9745;50.828;4.378;2023-04-03T09:30:58;7.13;;;3.73;;
19221;SDS011;9745;50.828;4.378;2023-04-03T09:33:25;5.57;;;2.93;;
19221;SDS011;9745;50.828;4.378;2023-04-03T09:35:52;5.17;;;2.90;;
19221;SDS011;9745;50.828;4.378;2023-04-03T09:38:19;4.93;;;2.93;;
19221;SDS011;9745;50.828;4.378;2023-04-03T09:40:50;9.20;;;4.10;;
19221;SDS011;9745;50.828;4.378;2023-04-03T09:43:20;9.53;;;3.63;;
19221;SDS011;9745;50.828;4.378;2023-04-03T09:45:47;5.43;;;2.80;;
19221;SDS011;9745;50.828;4.378;2023-04-03T09:56:25;5.60;;;2.40;;
19221;SDS011;9745;50.828;4.378;2023-04-03T10:06:31;6.40;;;2.30;;
19221;SDS011;9745;50.828;4.378;2023-04-03T10:09:01;4.90;;;2.30;;
19221;SDS011;9745;50.828;4.378;2023-04-03T10:11:29;4.80;;;2.17;;
19221;SDS011;9745;50.828;4.378;2023-04-03T10:13:56;2.77;;;1.90;;
19221;SDS011;9745;50.828;4.378;2023-04-03T10:16:47;8.03;;;2.43;;
19221;SDS011;9745;50.828;4.378;2023-04-03T10:19:25;5.13;;;2.33;;
19221;SDS011;9745;50.828;4.378;2023-04-03T10:21:59;5.33;;;2.23;;
19221;SDS011;9745;50.828;4.378;2023-04-03T10:24:34;5.53;;;2.60;;
19221;SDS011;9745;50.828;4.378;2023-04-03T10:27:18;6.43;;;2.43;;
19221;SDS011;9745;50.828;4.378;2023-04-03T10:30:31;5.03;;;2.30;;
19221;SDS011;9745;50.828;4.378;2023-04-03T10:43:15;6.07;;;2.13;;
19221;SDS011;9745;50.828;4.378;2023-04-03T10:48:15;4.83;;;2.37;;
19221;SDS011;9745;50.828;4.378;2023-04-03T10:50:47;3.60;;;2.27;;
19221;SDS011;9745;50.828;4.378;2023-04-03T10:56:02;4.07;;;1.67;;
19221;SDS011;9745;50.828;4.378;2023-04-03T11:01:00;7.33;;;1.97;;
19221;SDS011;9745;50.828;4.378;2023-04-03T11:05:55;4.20;;;1.90;;
19221;SDS011;9745;50.828;4.378;2023-04-03T11:08:27;3.77;;;1.70;;
19221;SDS011;9745;50.828;4.378;2023-04-03T11:10:56;5.33;;;1.60;;
19221;SDS011;9745;50.828;4.378;2023-04-03T11:13:33;4.60;;;1.70;;
19221;SDS011;9745;50.828;4.378;2023-04-03T11:16:01;5.53;;;1.70;;
19221;SDS011;9745;50.828;4.378;2023-04-03T11:18:31;4.63;;;1.63;;
19221;SDS011;9745;50.828;4.378;2023-04-03T11:21:00;2.10;;;1.17;;
19221;SDS011;9745;50.828;4.378;2023-04-03T11:23:30;3.93;;;1.67;;
19221;SDS011;9745;50.828;4.378;2023-04-03T11:26:00;4.17;;;1.53;;
19221;SDS011;9745;50.828;4.378;2023-04-03T11:28:30;5.17;;;1.33;;
19221;SDS011;9745;50.828;4.378;2023-04-03T11:31:09;3.87;;;1.27;;
19221;SDS011;9745;50.828;4.378;2023-04-03T11:33:55;2.60;;;1.30;;
19221;SDS011;9745;50.828;4.378;2023-04-03T11:36:25;4.07;;;1.50;;
19221;SDS011;9745;50.828;4.378;2023-04-03T11:38:52;5.33;;;1.50;;
19221;SDS011;9745;50.828;4.378;2023-04-03T11:41:24;5.63;;;1.83;;
19221;SDS011;9745;50.828;4.378;2023-04-03T11:44:23;5.00;;;1.67;;
19221;SDS011;9745;50.828;4.378;2023-04-03T11:46:56;3.67;;;1.50;;
19221;SDS011;9745;50.828;4.378;2023-04-03T11:52:09;2.63;;;1.60;;
19221;SDS011;9745;50.828;4.378;2023-04-03T11:54:45;8.07;;;1.70;;
19221;SDS011;9745;50.828;4.378;2023-04-03T11:57:22;5.20;;;1.80;;
19221;SDS011;9745;50.828;4.378;2023-04-03T11:59:49;6.03;;;1.50;;
19221;SDS011;9745;50.828;4.378;2023-04-03T12:02:34;3.00;;;1.30;;
19221;SDS011;9745;50.828;4.378;2023-04-03T12:07:52;6.93;;;1.80;;
19221;SDS011;9745;50.828;4.378;2023-04-03T12:10:31;4.90;;;1.57;;
19221;SDS011;9745;50.828;4.378;2023-04-03T12:12:57;3.37;;;1.40;;
19221;SDS011;9745;50.828;4.378;2023-04-03T12:15:47;3.47;;;1.47;;
19221;SDS011;9745;50.828;4.378;2023-04-03T12:20:56;2.27;;;1.40;;
19221;SDS011;9745;50.828;4.378;2023-04-03T12:23:27;4.23;;;1.87;;
19221;SDS011;9745;50.828;4.378;2023-04-03T12:25:58;2.33;;;1.50;;
19221;SDS011;9745;50.828;4.378;2023-04-03T12:28:25;3.13;;;1.30;;
19221;SDS011;9745;50.828;4.378;2023-04-03T12:30:52;2.30;;;1.13;;
19221;SDS011;9745;50.828;4.378;2023-04-03T12:36:13;5.03;;;1.60;;
19221;SDS011;9745;50.828;4.378;2023-04-03T12:39:01;2.30;;;1.23;;
19221;SDS011;9745;50.828;4.378;2023-04-03T12:41:46;3.17;;;1.20;;
19221;SDS011;9745;50.828;4.378;2023-04-03T12:47:02;6.37;;;1.90;;
19221;SDS011;9745;50.828;4.378;2023-04-03T12:49:37;3.27;;;2.00;;
19221;SDS011;9745;50.828;4.378;2023-04-03T12:54:59;1.13;;;0.77;;
19221;SDS011;9745;50.828;4.378;2023-04-03T12:57:29;2.23;;;1.20;;
19221;SDS011;9745;50.828;4.378;2023-04-03T12:59:55;3.77;;;1.60;;
19221;SDS011;9745;50.828;4.378;2023-04-03T13:02:31;3.30;;;1.00;;
19221;SDS011;9745;50.828;4.378;2023-04-03T13:05:08;2.80;;;1.23;;
19221;SDS011;9745;50.828;4.378;2023-04-03T13:07:35;3.43;;;1.73;;
19221;SDS011;9745;50.828;4.378;2023-04-03T13:10:13;1.63;;;1.10;;
19221;SDS011;9745;50.828;4.378;2023-04-03T13:12:51;2.23;;;1.40;;
19221;SDS011;9745;50.828;4.378;2023-04-03T13:15:21;4.53;;;1.37;;
19221;SDS011;9745;50.828;4.378;2023-04-03T13:17:48;8.03;;;2.77;;
19221;SDS011;9745;50.828;4.378;2023-04-03T13:23:04;3.77;;;1.07;;
19221;SDS011;9745;50.828;4.378;2023-04-03T13:25:32;2.20;;;1.13;;
19221;SDS011;9745;50.828;4.378;2023-04-03T13:27:59;5.23;;;1.20;;
19221;SDS011;9745;50.828;4.378;2023-04-03T13:32:55;3.13;;;1.43;;
19221;SDS011;9745;50.828;4.378;2023-04-03T13:35:30;5.60;;;2.13;;
19221;SDS011;9745;50.828;4.378;2023-04-03T13:37:57;2.07;;;1.10;;
19221;SDS011;9745;50.828;4.378;2023-04-03T13:40:24;4.80;;;0.90;;
19221;SDS011;9745;50.828;4.378;2023-04-03T13:43:06;2.47;;;1.20;;
19221;SDS011;9745;50.828;4.378;2023-04-03T13:45:33;3.67;;;1.37;;
19221;SDS011;9745;50.828;4.378;2023-04-03T13:48:17;3.47;;;1.40;;
19221;SDS011;9745;50.828;4.378;2023-04-03T13:50:50;5.53;;;1.47;;
19221;SDS011;9745;50.828;4.378;2023-04-03T13:53:17;4.60;;;0.93;;
19221;SDS011;9745;50.828;4.378;2023-04-03T13:55:56;3.73;;;1.43;;
19221;SDS011;9745;50.828;4.378;2023-04-03T13:58:24;3.50;;;1.53;;
19221;SDS011;9745;50.828;4.378;2023-04-03T14:00:52;4.33;;;1.67;;
19221;SDS011;9745;50.828;4.378;2023-04-03T14:05:44;3.17;;;1.23;;
19221;SDS011;9745;50.828;4.378;2023-04-03T14:08:10;3.20;;;1.30;;
19221;SDS011;9745;50.828;4.378;2023-04-03T14:10:37;3.13;;;1.30;;
19221;SDS011;9745;50.828;4.378;2023-04-03T14:13:03;3.60;;;1.50;;
19221;SDS011;9745;50.828;4.378;2023-04-03T14:15:30;4.03;;;1.60;;
19221;SDS011;9745;50.828;4.378;2023-04-03T14:17:57;3.60;;;1.37;;
19221;SDS011;9745;50.828;4.378;2023-04-03T14:20:24;2.90;;;1.37;;
19221;SDS011;9745;50.828;4.378;2023-04-03T14:22:51;3.27;;;1.23;;
19221;SDS011;9745;50.828;4.378;2023-04-03T14:25:18;5.67;;;1.40;;
19221;SDS011;9745;50.828;4.378;2023-04-03T14:27:47;2.80;;;1.10;;
19221;SDS011;9745;50.828;4.378;2023-04-03T14:30:19;2.73;;;1.10;;
19221;SDS011;9745;50.828;4.378;2023-04-03T14:32:46;2.67;;;1.43;;
19221;SDS011;9745;50.828;4.378;2023-04-03T14:35:12;3.73;;;1.30;;
19221;SDS011;9745;50.828;4.378;2023-04-03T14:37:39;4.80;;;1.80;;
19221;SDS011;9745;50.828;4.378;2023-04-03T14:40:05;2.60;;;1.47;;
19221;SDS011;9745;50.828;4.378;2023-04-03T14:42:33;6.80;;;1.53;;
19221;SDS011;9745;50.828;4.378;2023-04-03T14:45:00;3.00;;;1.70;;
19221;SDS011;9745;50.828;4.378;2023-04-03T14:47:27;4.13;;;1.20;;
19221;SDS011;9745;50.828;4.378;2023-04-03T14:49:53;3.73;;;1.53;;
19221;SDS011;9745;50.828;4.378;2023-04-03T14:54:46;4.13;;;1.30;;
19221;SDS011;9745;50.828;4.378;2023-04-03T14:57:13;3.10;;;1.27;;
19221;SDS011;9745;50.828;4.378;2023-04-03T14:59:39;4.13;;;1.30;;
19221;SDS011;9745;50.828;4.378;2023-04-03T15:02:20;5.10;;;1.30;;
19221;SDS011;9745;50.828;4.378;2023-04-03T15:04:50;2.00;;;1.10;;
19221;SDS011;9745;50.828;4.378;2023-04-03T15:07:15;4.60;;;1.33;;
19221;SDS011;9745;50.828;4.378;2023-04-03T15:09:41;5.17;;;1.33;;
19221;SDS011;9745;50.828;4.378;2023-04-03T15:12:08;2.07;;;1.47;;
19221;SDS011;9745;50.828;4.378;2023-04-03T15:14:34;2.90;;;1.20;;
19221;SDS011;9745;50.828;4.378;2023-04-03T15:17:01;4.83;;;1.53;;
19221;SDS011;9745;50.828;4.378;2023-04-03T15:19:27;1.90;;;1.37;;
19221;SDS011;9745;50.828;4.378;2023-04-03T15:21:53;3.07;;;1.53;;
19221;SDS011;9745;50.828;4.378;2023-04-03T15:24:20;3.23;;;1.40;;
19221;SDS011;9745;50.828;4.378;2023-04-03T15:26:46;2.83;;;1.30;;
19221;SDS011;9745;50.828;4.378;2023-04-03T15:29:11;3.43;;;1.17;;
19221;SDS011;9745;50.828;4.378;2023-04-03T15:31:37;2.57;;;1.70;;
19221;SDS011;9745;50.828;4.378;2023-04-03T15:34:03;4.70;;;1.33;;
19221;SDS011;9745;50.828;4.378;2023-04-03T15:36:30;4.27;;;1.50;;
19221;SDS011;9745;50.828;4.378;2023-04-03T15:38:55;4.53;;;1.63;;
19221;SDS011;9745;50.828;4.378;2023-04-03T15:41:21;2.73;;;1.67;;
19221;SDS011;9745;50.828;4.378;2023-04-03T15:43:47;2.17;;;1.10;;
19221;SDS011;9745;50.828;4.378;2023-04-03T15:46:13;5.53;;;1.77;;
19221;SDS011;9745;50.828;4.378;2023-04-03T15:48:39;2.60;;;1.20;;
19221;SDS011;9745;50.828;4.378;2023-04-03T15:51:05;2.60;;;1.50;;
19221;SDS011;9745;50.828;4.378;2023-04-03T15:53:31;3.47;;;1.40;;
19221;SDS011;9745;50.828;4.378;2023-04-03T15:55:57;4.80;;;1.30;;
19221;SDS011;9745;50.828;4.378;2023-04-03T15:58:23;3.90;;;1.03;;
19221;SDS011;9745;50.828;4.378;2023-04-03T16:00:50;3.03;;;1.70;;
19221;SDS011;9745;50.828;4.378;2023-04-03T16:03:17;3.37;;;1.73;;
19221;SDS011;9745;50.828;4.378;2023-04-03T16:05:44;4.23;;;1.60;;
19221;SDS011;9745;50.828;4.378;2023-04-03T16:08:10;4.47;;;1.90;;
19221;SDS011;9745;50.828;4.378;2023-04-03T16:10:36;2.50;;;1.40;;
19221;SDS011;9745;50.828;4.378;2023-04-03T16:13:03;4.87;;;2.20;;
19221;SDS011;9745;50.828;4.378;2023-04-03T16:15:29;3.63;;;1.73;;
19221;SDS011;9745;50.828;4.378;2023-04-03T16:17:55;5.47;;;1.90;;